Airfield :
LOGIN :

Register | Disclaimer

   EN    FR    IT 

 










Legend :    VFR   Marginal VFR   IFR   Intensive IFR   Very Intensive IFR
Visi :
Ceiling :
>= 8 km
>= 3000ft
5 to 8 km
1000 to 3000 ft
1500m to 5 km
500 to 1000 ft
800 to 1500m
200 to 500 ft
< 800m
< 200 ft
Symbols :   Thunderstorms  Fog  Heavy snow  Heavy precipitations  Wind > 20 kt
SIGMETs :     Misc.  Thunderstorms  Icing  Turbulence  Mountain Waves  Volcanic Ashes






- Airport Elevation : 587 ft
- IATA code : XCR


LFOK - Chalons Vatry

CURRENT METAR :
  • 160000Z AUTO 18008KT 9999 FEW009 BKN029 OVC035 08/08 Q1007 TEMPO 4000 RA BKN007 BKN020TCU

EXPIRED METARs :
  • 152330Z AUTO 19010KT 9999 -DZ FEW006 OVC035 09/09 Q1008 TEMPO 4000 RA BKN007 BKN020TCU
  • 152300Z AUTO 19009KT 8000 SCT003 BKN009 BKN013 09/09 Q1008 TEMPO 4000 RA BKN007 BKN020TCU
  • 152230Z AUTO 19009KT 9999 -RADZ BKN003 BKN007 BKN011 09/09 Q1008 TEMPO 4000 RA BKN007 BKN020TCU
  • 152200Z AUTO 18007KT 9999 FEW009 SCT026 BKN040 08/08 Q1007 TEMPO 4000 RA BKN007 BKN020TCU
  • 152130Z AUTO 19008KT 9999 BKN013 BKN020 BKN045 08/08 Q1008 TEMPO 4000 RA BKN007 BKN020TCU

TAF TAF LFOK
Valid from the 16 at 00:00 until the 17 at 00:00 UTC


152300Z 1600/1624 20010KT 9999 BKN030
TEMPO 1600/1611 4000 RA BKN007 BKN020TCU



MET'MAP, your aeronautical weather chart ! - Copyright ORBIFLY December 2007 - Disclaimer

ORBIFLY MET'MAP TEAM :

Programming & Development : Alexandra Zaïnal
Concept & original design : Baudouin d'Aumeries
Assistance for programming : Marc-Olivier Méhu
Technical & hardware support : Manuel Goepfert

Contact : metmap@orbifly.com




SOURCES & CREDITS :

   NOAA